createdAt,value
2023-02-16T00:01:32.067Z,22.87
2023-02-16T00:04:00.308Z,25.00
2023-02-16T00:06:29.781Z,25.20
2023-02-16T00:08:58.524Z,26.30
2023-02-16T00:11:50.530Z,26.30
2023-02-16T00:14:22.731Z,24.17
2023-02-16T00:16:51.133Z,24.23
2023-02-16T00:19:22.523Z,24.97
2023-02-16T00:21:52.269Z,25.47
2023-02-16T00:24:20.708Z,26.87
2023-02-16T00:26:51.039Z,26.13
2023-02-16T00:29:24.433Z,25.17
2023-02-16T00:31:53.266Z,26.63
2023-02-16T00:34:31.153Z,26.17
2023-02-16T00:37:01.324Z,27.47
2023-02-16T00:39:29.961Z,28.37
2023-02-16T00:42:02.317Z,27.73
2023-02-16T00:44:36.578Z,25.63
2023-02-16T00:47:14.326Z,26.40
2023-02-16T00:49:42.662Z,25.97
2023-02-16T00:52:28.954Z,26.30
2023-02-16T00:54:57.447Z,25.93
2023-02-16T00:57:28.857Z,25.70
2023-02-16T01:00:01.903Z,26.50
2023-02-16T01:02:30.962Z,26.50
2023-02-16T01:04:59.082Z,26.20
2023-02-16T01:07:44.366Z,27.47
2023-02-16T01:10:30.265Z,26.87
2023-02-16T01:13:00.003Z,27.63
2023-02-16T01:15:28.394Z,26.47
2023-02-16T01:17:56.917Z,27.07
2023-02-16T01:20:28.950Z,28.23
2023-02-16T01:22:57.622Z,27.43
2023-02-16T01:25:26.200Z,27.57
2023-02-16T01:27:54.300Z,26.57
2023-02-16T01:30:25.607Z,29.47
2023-02-16T01:32:54.297Z,29.13
2023-02-16T01:35:23.414Z,27.07
2023-02-16T01:37:52.238Z,27.10
2023-02-16T01:40:32.216Z,26.73
2023-02-16T01:43:05.638Z,26.60
2023-02-16T01:45:39.045Z,26.03
2023-02-16T01:48:15.097Z,24.67
2023-02-16T01:50:50.023Z,26.23
2023-02-16T01:53:25.291Z,24.60
2023-02-16T01:55:59.427Z,26.60
2023-02-16T01:58:37.316Z,24.47
2023-02-16T02:01:39.323Z,24.73
2023-02-16T02:04:38.486Z,25.23
2023-02-16T02:07:06.979Z,25.87
2023-02-16T02:09:43.134Z,24.77
2023-02-16T02:12:19.976Z,26.40
2023-02-16T02:14:49.240Z,26.27
2023-02-16T02:17:22.498Z,25.93
2023-02-16T02:20:00.901Z,27.13
2023-02-16T02:23:33.362Z,29.87
2023-02-16T02:26:55.506Z,26.80
2023-02-16T02:29:43.769Z,26.40
2023-02-16T02:32:23.594Z,26.70
2023-02-16T02:35:05.508Z,25.57
2023-02-16T02:37:45.484Z,26.13
2023-02-16T02:40:22.587Z,27.83
2023-02-16T02:43:02.333Z,26.80
2023-02-16T02:45:35.987Z,28.93
2023-02-16T02:48:04.398Z,26.33
2023-02-16T02:51:07.104Z,27.87
2023-02-16T02:53:39.327Z,26.40
2023-02-16T02:56:26.664Z,27.00
2023-02-16T02:59:16.478Z,25.57
2023-02-16T03:01:52.535Z,26.70
2023-02-16T03:04:26.252Z,27.73
2023-02-16T03:06:57.259Z,28.23
2023-02-16T03:09:26.533Z,26.93
2023-02-16T03:12:16.475Z,28.43
2023-02-16T03:14:47.492Z,28.10
2023-02-16T03:17:36.255Z,26.37
2023-02-16T03:20:25.345Z,26.13
2023-02-16T03:23:11.213Z,25.13
2023-02-16T03:25:58.260Z,25.27
2023-02-16T03:28:45.776Z,21.47
2023-02-16T03:31:17.646Z,24.03
2023-02-16T03:33:54.904Z,22.50
2023-02-16T03:36:23.910Z,23.10
2023-02-16T03:38:53.050Z,23.37
2023-02-16T03:41:21.484Z,21.03
2023-02-16T03:43:49.802Z,21.93
2023-02-16T03:46:18.194Z,21.17
2023-02-16T03:48:48.071Z,19.97
2023-02-16T03:51:16.707Z,19.47
2023-02-16T03:53:44.947Z,18.27
2023-02-16T03:56:13.128Z,17.17
2023-02-16T03:58:41.547Z,17.53
2023-02-16T04:01:09.993Z,16.67
2023-02-16T04:03:38.419Z,17.33
2023-02-16T04:06:08.772Z,17.07
2023-02-16T04:08:37.441Z,16.83
2023-02-16T04:11:27.316Z,17.97
2023-02-16T04:13:54.403Z,15.87
2023-02-16T04:16:23.061Z,17.10
2023-02-16T04:18:51.336Z,16.63
2023-02-16T04:21:21.134Z,15.50
2023-02-16T04:23:49.449Z,16.27
2023-02-16T04:26:17.668Z,15.43
2023-02-16T04:28:45.924Z,16.13
2023-02-16T04:31:14.368Z,15.57
2023-02-16T04:33:42.679Z,16.50
2023-02-16T04:36:11.552Z,17.00
2023-02-16T04:38:41.277Z,16.93
2023-02-16T04:41:09.542Z,16.13
2023-02-16T04:43:37.746Z,16.50
2023-02-16T04:46:06.228Z,16.33
2023-02-16T04:48:34.432Z,15.53
2023-02-16T04:51:05.572Z,17.07
2023-02-16T04:53:33.994Z,16.93
2023-02-16T04:56:03.787Z,16.93
2023-02-16T04:58:32.039Z,16.20
2023-02-16T05:01:00.281Z,16.40
2023-02-16T05:03:28.699Z,16.13
2023-02-16T05:05:57.380Z,15.17
2023-02-16T05:08:25.716Z,15.77
2023-02-16T05:11:07.725Z,15.70
2023-02-16T05:13:54.632Z,16.63
2023-02-16T05:16:23.524Z,15.43
2023-02-16T05:18:52.038Z,15.70
2023-02-16T05:21:32.292Z,14.47
2023-02-16T05:24:01.568Z,14.07
2023-02-16T05:26:30.088Z,15.97
2023-02-16T05:29:00.172Z,15.27
2023-02-16T05:31:29.706Z,15.50
2023-02-16T05:33:58.062Z,14.30
2023-02-16T05:36:26.457Z,16.57
2023-02-16T05:38:54.598Z,15.10
2023-02-16T05:41:25.378Z,14.63
2023-02-16T05:43:54.807Z,14.63
2023-02-16T05:46:25.617Z,16.03
2023-02-16T05:48:54.299Z,16.33
2023-02-16T05:51:23.079Z,14.87
2023-02-16T05:53:51.250Z,15.03
2023-02-16T05:56:20.161Z,15.30
2023-02-16T05:58:48.645Z,14.93
2023-02-16T06:01:16.935Z,14.73
2023-02-16T06:03:46.778Z,14.43
2023-02-16T06:06:15.321Z,14.40
2023-02-16T06:08:43.505Z,14.57
2023-02-16T06:11:32.809Z,13.70
2023-02-16T06:14:02.691Z,14.13
2023-02-16T06:16:32.288Z,13.73
2023-02-16T06:19:02.341Z,16.23
2023-02-16T06:21:30.553Z,17.00
2023-02-16T06:23:59.054Z,15.87
2023-02-16T06:26:27.784Z,16.13
2023-02-16T06:29:00.394Z,17.07
2023-02-16T06:31:29.935Z,15.97
2023-02-16T06:34:06.660Z,16.80
2023-02-16T06:36:42.425Z,15.63
2023-02-16T06:39:10.966Z,16.00
2023-02-16T06:42:04.401Z,17.50
2023-02-16T06:44:32.830Z,15.27
2023-02-16T06:47:01.177Z,15.10
2023-02-16T06:49:29.530Z,17.23
2023-02-16T06:51:59.604Z,15.43
2023-02-16T06:54:28.078Z,15.33
2023-02-16T06:56:56.360Z,15.13
2023-02-16T06:59:24.635Z,15.10
2023-02-16T07:01:52.822Z,15.50
2023-02-16T07:04:21.114Z,13.13
2023-02-16T07:06:49.977Z,15.10
2023-02-16T07:09:19.625Z,14.97
2023-02-16T07:11:48.487Z,14.43
2023-02-16T07:14:17.320Z,13.93
2023-02-16T07:16:45.676Z,15.73
2023-02-16T07:19:14.024Z,14.60
2023-02-16T07:21:42.343Z,12.80
2023-02-16T07:24:14.610Z,14.20
2023-02-16T07:26:47.184Z,14.47
2023-02-16T07:29:15.483Z,14.17
2023-02-16T07:31:43.753Z,13.57
2023-02-16T07:34:12.162Z,12.90
2023-02-16T07:36:40.352Z,13.75
2023-02-16T07:39:08.683Z,13.50
2023-02-16T07:41:36.997Z,12.73
2023-02-16T07:44:07.482Z,14.30
2023-02-16T07:46:35.861Z,12.18
2023-02-16T07:49:04.647Z,12.53
2023-02-16T07:51:33.441Z,12.18
2023-02-16T07:54:02.056Z,11.75
2023-02-16T07:56:32.835Z,13.25
2023-02-16T07:59:02.939Z,13.25
2023-02-16T08:01:35.570Z,14.25
2023-02-16T08:04:07.304Z,12.02
2023-02-16T08:06:36.212Z,11.07
2023-02-16T08:09:04.772Z,12.02
2023-02-16T08:11:33.563Z,11.25
2023-02-16T08:14:08.150Z,12.38
2023-02-16T08:18:29.887Z,12.00
2023-02-16T08:21:15.888Z,11.07
2023-02-16T08:23:58.657Z,9.25
2023-02-16T08:26:29.783Z,14.15
2023-02-16T08:28:59.796Z,12.38
2023-02-16T08:31:30.474Z,10.98
2023-02-16T08:34:03.171Z,10.25
2023-02-16T08:36:36.206Z,10.93
2023-02-16T08:39:06.903Z,11.93
2023-02-16T08:41:37.498Z,10.50
2023-02-16T08:44:06.787Z,11.43
2023-02-16T08:46:36.198Z,11.52
2023-02-16T08:49:06.348Z,11.63
2023-02-16T08:51:38.164Z,11.60
2023-02-16T08:54:09.299Z,11.35
2023-02-16T08:56:38.071Z,11.48
2023-02-16T08:59:09.626Z,12.07
2023-02-16T09:01:43.771Z,11.95
2023-02-16T09:04:14.466Z,12.13
2023-02-16T09:06:45.298Z,10.73
2023-02-16T09:09:14.744Z,12.63
2023-02-16T09:11:43.358Z,11.00
2023-02-16T09:14:12.222Z,11.02
2023-02-16T09:16:46.068Z,11.32
2023-02-16T09:19:20.753Z,10.75
2023-02-16T09:21:51.083Z,11.90
2023-02-16T09:24:19.744Z,10.75
2023-02-16T09:26:48.090Z,11.65
2023-02-16T09:29:16.462Z,10.20
2023-02-16T09:31:45.860Z,10.80
2023-02-16T09:34:29.978Z,12.25
2023-02-16T09:37:00.673Z,10.13
2023-02-16T09:39:31.881Z,11.98
2023-02-16T09:42:24.542Z,13.13
2023-02-16T09:44:59.633Z,13.98
2023-02-16T09:47:33.907Z,15.18
2023-02-16T09:50:14.657Z,16.13
2023-02-16T09:52:52.535Z,16.08
2023-02-16T09:55:22.666Z,15.45
2023-02-16T09:58:04.368Z,15.25
2023-02-16T10:00:46.114Z,15.50
2023-02-16T10:03:26.076Z,15.02
2023-02-16T10:06:05.694Z,17.45
2023-02-16T10:08:43.237Z,16.55
2023-02-16T10:11:32.121Z,16.63
2023-02-16T10:14:06.533Z,16.38
2023-02-16T10:16:41.995Z,18.98
2023-02-16T10:19:21.496Z,18.35
2023-02-16T10:21:55.429Z,17.75
2023-02-16T10:24:25.488Z,17.52
2023-02-16T10:27:02.399Z,19.27
2023-02-16T10:29:30.714Z,18.40
2023-02-16T10:32:09.116Z,19.63
2023-02-16T10:34:49.028Z,18.98
2023-02-16T10:37:32.177Z,18.50
2023-02-16T10:40:21.634Z,18.42
2023-02-16T10:42:57.342Z,17.70
2023-02-16T10:45:31.953Z,17.38
2023-02-16T10:48:00.544Z,19.40
2023-02-16T10:50:33.148Z,18.15
2023-02-16T10:53:08.241Z,17.67
2023-02-16T10:55:38.291Z,16.85
2023-02-16T10:58:14.802Z,17.75
2023-02-16T11:00:51.830Z,16.60
2023-02-16T11:03:24.234Z,16.40
2023-02-16T11:05:53.628Z,17.35
2023-02-16T11:08:25.870Z,15.90
2023-02-16T11:10:55.430Z,18.75
2023-02-16T11:13:33.985Z,17.83
2023-02-16T11:16:07.413Z,16.42
2023-02-16T11:18:39.794Z,15.32
2023-02-16T11:21:10.220Z,14.68
2023-02-16T11:23:41.435Z,16.05
2023-02-16T11:26:24.800Z,15.13
2023-02-16T11:28:53.804Z,15.48
2023-02-16T11:31:28.513Z,15.27
2023-02-16T11:34:00.071Z,15.82
2023-02-16T11:36:34.612Z,16.13
2023-02-16T11:39:10.934Z,16.25
2023-02-16T11:41:39.348Z,15.73
2023-02-16T11:44:28.977Z,16.13
2023-02-16T11:46:58.635Z,17.83
2023-02-16T11:49:35.833Z,17.88
2023-02-16T11:52:22.303Z,17.63
2023-02-16T11:54:55.941Z,17.45
2023-02-16T11:57:28.622Z,18.52
2023-02-16T11:59:57.617Z,19.17
2023-02-16T12:02:57.088Z,19.38
2023-02-16T12:05:28.447Z,19.05
2023-02-16T12:08:14.964Z,17.92
2023-02-16T12:10:56.520Z,19.08
2023-02-16T12:13:33.085Z,19.42
2023-02-16T12:16:09.157Z,18.08
2023-02-16T12:18:44.356Z,18.55
2023-02-16T12:21:19.424Z,18.33
2023-02-16T12:23:59.613Z,17.55
2023-02-16T12:26:39.267Z,19.25
2023-02-16T12:29:28.442Z,18.10
2023-02-16T12:32:12.023Z,18.58
2023-02-16T12:34:53.974Z,19.17
2023-02-16T12:37:31.043Z,18.30
2023-02-16T12:40:08.062Z,18.08
2023-02-16T12:42:55.306Z,18.67
2023-02-16T12:45:29.072Z,18.42
2023-02-16T12:48:01.962Z,19.90
2023-02-16T12:50:32.675Z,20.08
2023-02-16T12:53:08.804Z,17.50
2023-02-16T12:55:46.867Z,17.80
2023-02-16T12:58:22.245Z,17.33
2023-02-16T13:00:58.785Z,17.00
2023-02-16T13:03:35.841Z,17.95
2023-02-16T13:06:13.541Z,17.77
2023-02-16T13:08:47.589Z,19.23
2023-02-16T13:11:22.585Z,17.73
2023-02-16T13:13:54.706Z,18.67
2023-02-16T13:16:30.752Z,19.33
2023-02-16T13:18:59.625Z,18.70
2023-02-16T13:21:55.836Z,18.17
2023-02-16T13:24:39.041Z,19.27
2023-02-16T13:27:22.238Z,19.02
2023-02-16T13:30:10.473Z,16.42
2023-02-16T13:32:56.071Z,17.50
2023-02-16T13:35:54.090Z,17.00
2023-02-16T13:38:54.958Z,15.63
2023-02-16T13:41:58.519Z,18.35
2023-02-16T13:44:36.594Z,17.58
2023-02-16T13:47:09.753Z,18.08
2023-02-16T13:49:43.166Z,17.30
2023-02-16T13:52:13.085Z,18.88
2023-02-16T13:54:43.944Z,17.65
2023-02-16T13:57:15.993Z,18.73
2023-02-16T14:00:05.659Z,16.83
2023-02-16T14:02:55.775Z,18.90
2023-02-16T14:05:31.216Z,16.48
2023-02-16T14:08:21.898Z,16.35
2023-02-16T14:11:14.158Z,18.27
2023-02-16T14:13:48.622Z,17.25
2023-02-16T14:16:31.623Z,16.85
2023-02-16T14:19:03.988Z,17.58
2023-02-16T14:21:43.262Z,16.42
2023-02-16T14:24:24.820Z,17.77
2023-02-16T14:26:56.599Z,17.75
2023-02-16T14:29:34.064Z,19.05
2023-02-16T14:32:07.778Z,16.17
2023-02-16T14:34:46.685Z,17.80
2023-02-16T14:37:36.854Z,15.25
2023-02-16T14:40:20.210Z,16.95
2023-02-16T14:42:53.628Z,16.42
2023-02-16T14:46:07.155Z,17.50
2023-02-16T14:49:19.522Z,15.70
2023-02-16T14:52:22.189Z,18.15
2023-02-16T14:55:07.246Z,17.92
2023-02-16T14:57:41.001Z,19.38
2023-02-16T15:00:19.694Z,17.67
2023-02-16T15:02:58.176Z,19.52
2023-02-16T15:05:29.730Z,18.88
2023-02-16T15:08:09.655Z,19.70
2023-02-16T15:10:46.595Z,20.45
2023-02-16T15:13:21.165Z,19.00
2023-02-16T15:15:51.681Z,19.98
2023-02-16T15:18:23.161Z,20.02
2023-02-16T15:20:54.947Z,19.75
2023-02-16T15:23:26.324Z,22.63
2023-02-16T15:25:58.782Z,22.58
2023-02-16T15:28:29.629Z,23.17
2023-02-16T15:30:59.853Z,22.02
2023-02-16T15:33:34.332Z,22.60
2023-02-16T15:36:08.915Z,22.45
2023-02-16T15:38:40.845Z,23.42
2023-02-16T15:41:10.861Z,22.98
2023-02-16T15:43:45.693Z,24.85
2023-02-16T15:46:17.080Z,22.27
2023-02-16T15:48:46.123Z,24.58
2023-02-16T15:51:18.717Z,22.92
2023-02-16T15:53:54.056Z,24.88
2023-02-16T15:56:38.884Z,24.38
2023-02-16T15:59:29.126Z,22.02
2023-02-16T16:02:00.258Z,23.45
2023-02-16T16:04:29.404Z,24.00
2023-02-16T16:07:00.098Z,22.60
2023-02-16T16:09:32.981Z,23.10
2023-02-16T16:12:05.848Z,24.15
2023-02-16T16:14:37.137Z,23.20
2023-02-16T16:17:06.146Z,23.38
2023-02-16T16:19:37.067Z,21.42
2023-02-16T16:22:17.994Z,22.33
2023-02-16T16:24:48.742Z,22.50
2023-02-16T16:27:28.699Z,19.33
2023-02-16T16:30:12.225Z,20.00
2023-02-16T16:32:40.744Z,19.52
2023-02-16T16:35:22.990Z,21.73
2023-02-16T16:37:53.702Z,22.33
2023-02-16T16:40:26.649Z,21.58
2023-02-16T16:43:17.610Z,17.95
2023-02-16T16:45:47.294Z,18.83
2023-02-16T16:48:23.390Z,18.45
2023-02-16T16:50:51.787Z,20.60
2023-02-16T16:53:44.143Z,21.50
2023-02-16T16:56:15.697Z,17.88
2023-02-16T16:58:43.969Z,18.45
2023-02-16T17:01:14.013Z,20.15
2023-02-16T17:03:42.522Z,19.38
2023-02-16T17:06:11.005Z,19.63
2023-02-16T17:08:39.410Z,20.23
2023-02-16T17:11:09.498Z,20.08
2023-02-16T17:13:39.253Z,18.50
2023-02-16T17:16:12.243Z,20.50
2023-02-16T17:18:40.957Z,19.50
2023-02-16T17:21:11.908Z,23.30
2023-02-16T17:23:50.427Z,19.92
2023-02-16T17:26:21.192Z,21.27
2023-02-16T17:28:51.143Z,19.42
2023-02-16T17:31:19.443Z,21.38
2023-02-16T17:33:47.753Z,21.35
2023-02-16T17:36:16.888Z,21.23
2023-02-16T17:38:45.757Z,20.90
2023-02-16T17:41:22.018Z,20.00
2023-02-16T17:43:54.307Z,20.88
2023-02-16T17:46:24.885Z,19.02
2023-02-16T17:48:55.264Z,21.25
2023-02-16T17:51:25.692Z,19.92
2023-02-16T17:53:54.048Z,20.25
2023-02-16T17:56:24.271Z,19.05
2023-02-16T17:58:58.441Z,20.27
2023-02-16T18:01:29.127Z,20.30
2023-02-16T18:03:57.791Z,18.50
2023-02-16T18:06:28.949Z,20.42
2023-02-16T18:08:57.553Z,17.10
2023-02-16T18:11:26.259Z,20.65
2023-02-16T18:13:56.154Z,21.08
2023-02-16T18:16:28.190Z,20.13
2023-02-16T18:18:57.473Z,21.17
2023-02-16T18:21:26.258Z,19.63
2023-02-16T18:23:54.496Z,21.67
2023-02-16T18:26:26.166Z,19.40
2023-02-16T18:28:59.434Z,21.90
2023-02-16T18:31:27.768Z,23.50
2023-02-16T18:33:56.138Z,21.08
2023-02-16T18:36:24.431Z,21.42
2023-02-16T18:38:52.882Z,22.50
2023-02-16T18:41:24.193Z,20.92
2023-02-16T18:43:54.519Z,23.15
2023-02-16T18:46:24.497Z,20.42
2023-02-16T18:48:53.052Z,22.27
2023-02-16T18:51:23.667Z,23.23
2023-02-16T18:53:52.049Z,20.20
2023-02-16T18:56:20.337Z,24.13
2023-02-16T18:58:48.584Z,22.20
2023-02-16T19:01:24.898Z,21.77
2023-02-16T19:04:01.048Z,23.33
2023-02-16T19:06:29.531Z,21.58
2023-02-16T19:08:59.066Z,22.80
2023-02-16T19:11:30.801Z,23.40
2023-02-16T19:13:59.165Z,22.33
2023-02-16T19:16:27.408Z,22.27
2023-02-16T19:18:57.244Z,20.63
2023-02-16T19:21:25.581Z,22.10
2023-02-16T19:23:53.957Z,22.58
2023-02-16T19:26:22.941Z,21.40
2023-02-16T19:28:51.186Z,21.33
2023-02-16T19:31:22.334Z,19.15
2023-02-16T19:33:57.876Z,17.77
2023-02-16T19:36:30.149Z,11.07
2023-02-16T19:38:58.699Z,8.68
2023-02-16T19:41:29.961Z,8.45
2023-02-16T19:43:58.249Z,8.20
2023-02-16T19:46:26.870Z,6.53
2023-02-16T19:48:56.005Z,7.50
2023-02-16T19:51:25.212Z,6.63
2023-02-16T19:53:59.490Z,8.05
2023-02-16T19:56:28.862Z,6.30
2023-02-16T19:58:59.273Z,6.75
2023-02-16T20:01:29.920Z,6.43
2023-02-16T20:04:00.198Z,6.93
2023-02-16T20:06:31.050Z,8.02
2023-02-16T20:09:02.108Z,6.90
2023-02-16T20:11:31.558Z,7.75
2023-02-16T20:14:00.486Z,7.32
2023-02-16T20:16:29.279Z,8.98
2023-02-16T20:18:58.914Z,7.68
2023-02-16T20:21:30.541Z,7.75
2023-02-16T20:24:09.633Z,7.13
2023-02-16T20:26:40.665Z,6.78
2023-02-16T20:29:11.137Z,7.22
2023-02-16T20:31:42.206Z,7.25
2023-02-16T20:34:11.498Z,6.55
2023-02-16T20:36:42.960Z,7.40
2023-02-16T20:39:16.081Z,7.68
2023-02-16T20:41:44.955Z,7.57
2023-02-16T20:44:14.107Z,6.88
2023-02-16T20:46:42.941Z,7.90
2023-02-16T20:49:12.158Z,6.53
2023-02-16T20:51:41.378Z,6.30
2023-02-16T20:54:09.917Z,7.15
2023-02-16T20:56:40.644Z,7.13
2023-02-16T20:59:09.439Z,6.93
2023-02-16T21:01:40.578Z,7.13
2023-02-16T21:04:14.634Z,6.57
2023-02-16T21:06:43.112Z,6.80
2023-02-16T21:09:12.599Z,6.25
2023-02-16T21:11:43.125Z,7.00
2023-02-16T21:14:13.164Z,6.63
2023-02-16T21:16:42.112Z,6.72
2023-02-16T21:19:21.216Z,6.78
2023-02-16T21:21:51.420Z,6.45
2023-02-16T21:24:21.846Z,6.78
2023-02-16T21:26:51.594Z,6.72
2023-02-16T21:29:19.845Z,5.53
2023-02-16T21:31:48.235Z,6.03
2023-02-16T21:34:16.549Z,7.03
2023-02-16T21:36:44.945Z,7.40
2023-02-16T21:39:15.382Z,6.70
2023-02-16T21:41:44.582Z,7.07
2023-02-16T21:44:16.030Z,7.10
2023-02-16T21:46:45.735Z,6.60
2023-02-16T21:49:14.332Z,6.57
2023-02-16T21:51:44.263Z,5.22
2023-02-16T21:54:14.803Z,5.57
2023-02-16T21:56:43.732Z,6.85
2023-02-16T21:59:17.747Z,6.65
2023-02-16T22:01:53.038Z,6.68
2023-02-16T22:04:22.949Z,7.97
2023-02-16T22:06:52.457Z,7.13
2023-02-16T22:09:22.928Z,8.65
2023-02-16T22:11:51.842Z,9.32
2023-02-16T22:14:21.481Z,11.55
2023-02-16T22:16:50.890Z,10.25
2023-02-16T22:19:26.567Z,11.30
2023-02-16T22:21:54.893Z,11.23
2023-02-16T22:24:23.318Z,11.35
2023-02-16T22:26:51.797Z,10.25
2023-02-16T22:29:21.625Z,10.55
2023-02-16T22:31:50.611Z,9.93
2023-02-16T22:34:21.144Z,9.50
2023-02-16T22:36:49.785Z,7.65
2023-02-16T22:39:19.265Z,6.68
2023-02-16T22:41:49.926Z,7.43
2023-02-16T22:44:18.240Z,6.75
2023-02-16T22:46:48.393Z,6.53
2023-02-16T22:49:22.459Z,6.63
2023-02-16T22:51:50.939Z,8.32
2023-02-16T22:54:19.228Z,6.55
2023-02-16T22:56:47.603Z,6.00
2023-02-16T22:59:16.032Z,6.32
2023-02-16T23:01:44.470Z,7.20
2023-02-16T23:04:16.622Z,7.18
2023-02-16T23:06:46.176Z,6.57
2023-02-16T23:09:18.688Z,6.80
2023-02-16T23:11:48.979Z,7.07
2023-02-16T23:14:17.849Z,7.30
2023-02-16T23:16:47.027Z,6.55
2023-02-16T23:19:18.226Z,7.57
2023-02-16T23:21:47.201Z,7.13
2023-02-16T23:24:17.884Z,7.82
2023-02-16T23:26:49.256Z,7.25
2023-02-16T23:29:23.369Z,7.40
2023-02-16T23:31:52.437Z,7.55
2023-02-16T23:34:22.696Z,8.52
2023-02-16T23:36:51.080Z,7.65
2023-02-16T23:39:20.089Z,7.55
2023-02-16T23:41:48.447Z,7.95
2023-02-16T23:44:16.841Z,8.65
2023-02-16T23:46:45.130Z,8.93
2023-02-16T23:49:13.577Z,11.95
2023-02-16T23:51:43.426Z,9.10
2023-02-16T23:54:12.322Z,12.68
2023-02-16T23:56:44.440Z,15.52
2023-02-16T23:59:14.891Z,10.65
